Alpine, New Jersey
Current Conditions -  °F | °C
As of 12:51 AM on Sunday 21 Dec 2014 (Local Time) from KTEB Reporting Station
Overcast Overcast  
Wind Chill: 27°   Ceiling: 2800
Heat Index: 32°   Visibility: 10mi
Dew Point: 22°   Wind: 5mph
Humidity: 66%   Direction: 320°NW
Pressure: 30.29"   Gusts: NA
Location:  40.96°N, 73.93°W
Report Text: KTEB 210551Z 32004KT 10SM OVC028 00/M06 A3029 RMK AO2 SLP255 T00001056 10006 20000 56003
Loading
Personal Weather Stations






























Interactive Weather Map New forecast layout! Learn more

10-Day Weather Forecast

Advertisements
Track Severe Weather on mobile